Time;durP1;ratioP1;P1;durP2;ratioP2;P2;SDS_P1;SDS_P2;PMS_P1;PMS_P2;Temp;Humidity;BMP_temperature;BMP_pressure;BME280_temperature;BME280_humidity;BME280_pressure;Samples;Min_cycle;Max_cycle;Signal;HPM_P1;HPM_P2
2021/12/06 00:02:13;;;;;;;11.10;4.18;;;0.30;99.90;;;;;;4955642;28;20013;-84
2021/12/06 00:04:39;;;;;;;3.97;3.58;;;0.30;99.90;;;;;;4958871;28;20121;-84
2021/12/06 00:07:11;;;;;;;6.65;3.80;;;0.30;99.90;;;;;;4958387;28;20490;-84
2021/12/06 00:09:39;;;;;;;5.00;4.15;;;0.30;99.90;;;;;;4956403;28;20043;-85
2021/12/06 00:12:05;;;;;;;6.28;4.78;;;0.40;99.90;;;;;;4951948;28;20030;-84
2021/12/06 00:14:36;;;;;;;6.35;4.55;;;0.40;99.90;;;;;;4952360;28;20042;-83
2021/12/06 00:17:05;;;;;;;7.35;5.78;;;0.30;99.90;;;;;;4954740;28;20163;-84
2021/12/06 00:19:32;;;;;;;9.23;5.47;;;0.40;99.90;;;;;;4973359;28;20035;-84
2021/12/06 00:22:00;;;;;;;10.10;6.53;;;0.30;99.90;;;;;;4951988;28;20165;-83
2021/12/06 00:24:26;;;;;;;9.73;5.43;;;0.30;99.90;;;;;;4953255;28;20722;-84
2021/12/06 00:26:52;;;;;;;10.70;5.80;;;0.30;99.90;;;;;;4969834;28;20044;-84
2021/12/06 00:29:22;;;;;;;17.60;6.40;;;0.40;99.90;;;;;;4946140;28;20117;-85
2021/12/06 00:31:48;;;;;;;6.75;4.97;;;0.40;99.90;;;;;;4937265;28;20514;-84
2021/12/06 00:34:17;;;;;;;9.20;6.38;;;0.40;99.90;;;;;;4958028;28;20030;-83
2021/12/06 00:36:52;;;;;;;11.27;7.03;;;0.40;99.90;;;;;;4961757;28;20034;-84
2021/12/06 00:39:22;;;;;;;7.95;7.15;;;0.40;99.90;;;;;;4972605;28;20027;-84
2021/12/06 00:41:48;;;;;;;8.13;6.25;;;0.40;99.90;;;;;;4972358;28;20057;-84
2021/12/06 00:44:14;;;;;;;7.97;5.95;;;0.40;99.90;;;;;;4985368;28;20033;-84
2021/12/06 00:46:40;;;;;;;8.73;5.38;;;0.40;99.90;;;;;;4966951;28;20484;-84
2021/12/06 00:49:07;;;;;;;9.00;5.13;;;0.50;99.90;;;;;;4963407;28;20623;-84
2021/12/06 00:51:35;;;;;;;8.68;5.63;;;0.50;99.90;;;;;;4962605;28;20069;-84
2021/12/06 00:54:02;;;;;;;6.85;4.82;;;0.40;99.90;;;;;;4958235;28;20026;-84
2021/12/06 00:56:29;;;;;;;4.97;4.38;;;0.40;99.90;;;;;;4962246;28;20192;-84
2021/12/06 00:58:55;;;;;;;6.63;4.30;;;0.40;99.90;;;;;;4956460;28;20130;-84
2021/12/06 01:01:22;;;;;;;4.97;4.18;;;0.50;99.90;;;;;;4972639;28;20162;-85
2021/12/06 01:03:50;;;;;;;5.82;4.18;;;0.50;99.90;;;;;;4959074;28;20719;-84
2021/12/06 01:06:16;;;;;;;7.45;4.93;;;0.50;99.90;;;;;;4952740;28;20120;-84
2021/12/06 01:08:42;;;;;;;5.95;4.75;;;0.50;99.90;;;;;;4954116;28;20525;-84
2021/12/06 01:11:10;;;;;;;6.50;4.93;;;0.40;99.90;;;;;;4971729;28;20022;-83
2021/12/06 01:13:36;;;;;;;8.07;5.78;;;0.50;99.90;;;;;;4970482;28;20039;-83
2021/12/06 01:16:03;;;;;;;7.88;4.95;;;0.50;99.90;;;;;;4951546;28;20484;-84
2021/12/06 01:18:29;;;;;;;7.60;5.40;;;0.40;99.90;;;;;;4954338;28;20152;-84
2021/12/06 01:23:55;;;;;;;7.18;4.38;;;0.20;99.90;;;;;;4961522;28;20102;-85
2021/12/06 01:31:55;;;;;;;6.30;4.95;;;0.30;99.90;;;;;;4931420;28;20070;-84
2021/12/06 01:39:48;;;;;;;9.60;4.68;;;0.40;99.90;;;;;;4966801;28;20053;-84
2021/12/06 01:42:14;;;;;;;6.63;4.78;;;0.40;99.90;;;;;;4956451;28;20062;-84
2021/12/06 01:44:43;;;;;;;6.53;4.57;;;0.40;99.90;;;;;;4957105;28;20530;-84
2021/12/06 01:47:20;;;;;;;9.18;5.03;;;0.40;99.90;;;;;;4957403;28;20097;-84
2021/12/06 01:49:51;;;;;;;7.13;4.72;;;0.40;99.90;;;;;;4965216;28;20063;-84
2021/12/06 01:52:21;;;;;;;11.68;5.45;;;0.40;99.90;;;;;;4958640;28;20035;-83
2021/12/06 01:54:48;;;;;;;8.57;5.03;;;0.40;99.90;;;;;;4952799;28;20031;-85
2021/12/06 01:57:16;;;;;;;6.15;5.22;;;0.40;99.90;;;;;;4954953;28;20030;-84
2021/12/06 01:59:42;;;;;;;6.85;4.78;;;0.40;99.90;;;;;;4969157;28;20054;-84
2021/12/06 02:02:09;;;;;;;9.48;5.60;;;0.50;99.90;;;;;;4935513;28;20023;-84
2021/12/06 02:04:37;;;;;;;8.43;5.47;;;0.40;99.90;;;;;;4963231;28;20065;-84
2021/12/06 02:07:06;;;;;;;13.95;5.50;;;0.50;99.90;;;;;;4951829;28;20048;-84
2021/12/06 02:09:32;;;;;;;6.28;4.47;;;0.40;99.90;;;;;;4950111;28;20123;-85
2021/12/06 02:12:01;;;;;;;7.60;4.72;;;0.50;99.90;;;;;;4950427;28;20030;-85
2021/12/06 02:14:41;;;;;;;8.80;5.38;;;0.50;99.90;;;;;;4946919;28;20058;-84
2021/12/06 02:17:14;;;;;;;6.03;4.80;;;0.50;99.90;;;;;;4947692;28;20461;-84
2021/12/06 02:19:45;;;;;;;6.40;4.55;;;0.40;99.90;;;;;;4953962;28;20027;-84
2021/12/06 02:22:24;;;;;;;7.30;5.15;;;0.40;99.90;;;;;;4947949;28;20038;-85
2021/12/06 02:24:53;;;;;;;5.60;4.13;;;0.40;99.90;;;;;;4949170;28;20443;-85
2021/12/06 02:27:20;;;;;;;6.55;4.80;;;0.40;99.90;;;;;;4972405;28;20035;-85
2021/12/06 02:29:48;;;;;;;5.50;4.28;;;0.50;99.90;;;;;;4953092;28;20043;-85
2021/12/06 02:32:15;;;;;;;6.90;5.20;;;0.50;99.90;;;;;;4964001;28;20042;-84
2021/12/06 02:34:45;;;;;;;5.95;4.50;;;0.50;99.90;;;;;;4965914;28;20033;-85
2021/12/06 02:37:16;;;;;;;5.70;4.03;;;0.60;99.90;;;;;;4950824;28;20029;-84
2021/12/06 02:39:42;;;;;;;4.78;4.13;;;0.60;99.90;;;;;;4952712;28;20034;-85
2021/12/06 02:42:11;;;;;;;5.60;4.47;;;0.50;99.90;;;;;;4953539;28;20396;-84
2021/12/06 02:44:37;;;;;;;5.95;4.20;;;0.40;99.90;;;;;;4966609;28;20023;-84
2021/12/06 02:47:04;;;;;;;6.43;4.32;;;0.40;99.90;;;;;;4954368;28;20031;-85
2021/12/06 02:49:30;;;;;;;6.25;3.78;;;0.40;99.90;;;;;;4950293;28;20046;-84
2021/12/06 02:51:55;;;;;;;11.70;3.70;;;0.50;99.90;;;;;;4969656;28;20919;-85
2021/12/06 02:54:22;;;;;;;6.97;4.18;;;0.50;99.90;;;;;;4952752;28;20113;-85
2021/12/06 02:57:20;;;;;;;6.35;3.78;;;0.50;99.90;;;;;;4949322;28;20035;-85
2021/12/06 02:59:47;;;;;;;6.20;4.20;;;0.50;99.90;;;;;;4952157;28;20073;-85
2021/12/06 03:02:17;;;;;;;4.45;4.05;;;0.50;99.90;;;;;;4946687;28;20066;-84
2021/12/06 03:04:42;;;;;;;5.38;4.00;;;0.50;99.90;;;;;;4957643;28;20032;-84
2021/12/06 03:07:09;;;;;;;4.35;3.90;;;0.50;99.90;;;;;;4968506;28;20043;-85
2021/12/06 03:09:38;;;;;;;9.02;4.20;;;0.50;99.90;;;;;;4963347;28;20065;-85
2021/12/06 03:12:06;;;;;;;6.10;4.47;;;0.50;99.90;;;;;;4957005;28;20037;-85
2021/12/06 03:14:37;;;;;;;4.50;3.97;;;0.50;99.90;;;;;;4968571;28;20045;-85
2021/12/06 03:17:07;;;;;;;7.47;5.40;;;0.50;99.90;;;;;;4951829;28;20133;-85
2021/12/06 03:19:34;;;;;;;5.88;4.45;;;0.50;99.90;;;;;;4960591;28;20577;-85
2021/12/06 03:21:59;;;;;;;7.82;5.45;;;0.50;99.90;;;;;;4956825;28;20023;-84
2021/12/06 03:24:25;;;;;;;9.32;6.35;;;0.50;99.90;;;;;;4964344;28;20029;-85
2021/12/06 03:26:53;;;;;;;11.10;5.65;;;0.50;99.90;;;;;;4967325;28;20058;-84
2021/12/06 03:29:20;;;;;;;10.77;6.28;;;0.50;99.90;;;;;;4940437;28;20034;-84
2021/12/06 03:31:49;;;;;;;12.20;7.30;;;0.60;99.90;;;;;;4958036;28;20035;-85
2021/12/06 03:34:17;;;;;;;11.23;6.47;;;0.60;99.90;;;;;;4953012;28;20124;-85
2021/12/06 03:36:43;;;;;;;9.88;6.90;;;0.60;99.90;;;;;;4968638;28;20054;-85
2021/12/06 03:39:23;;;;;;;9.23;5.97;;;0.60;99.90;;;;;;4953968;28;20027;-85
2021/12/06 03:41:50;;;;;;;11.57;6.65;;;0.60;99.90;;;;;;4968175;28;20026;-85
2021/12/06 03:44:18;;;;;;;8.75;5.75;;;0.60;99.90;;;;;;4970564;28;20035;-85
2021/12/06 03:46:44;;;;;;;10.13;6.32;;;0.60;99.90;;;;;;4954386;28;20030;-85
2021/12/06 03:49:14;;;;;;;11.88;5.65;;;0.60;99.90;;;;;;4969810;28;20031;-84
2021/12/06 03:51:41;;;;;;;12.57;5.72;;;0.60;99.90;;;;;;4969833;28;20509;-84
2021/12/06 03:54:07;;;;;;;9.98;5.63;;;0.60;99.90;;;;;;4965998;28;20047;-85
2021/12/06 03:56:36;;;;;;;9.57;5.57;;;0.60;99.90;;;;;;4958621;28;20039;-84
2021/12/06 03:59:02;;;;;;;8.15;5.07;;;0.60;99.90;;;;;;4958541;28;20162;-84
2021/12/06 04:01:30;;;;;;;11.88;6.63;;;0.60;99.90;;;;;;4952825;28;20150;-85
2021/12/06 04:03:56;;;;;;;9.38;5.97;;;0.60;99.90;;;;;;4968194;28;20510;-85
2021/12/06 04:06:22;;;;;;;11.30;6.82;;;0.60;99.90;;;;;;4953577;28;20035;-84
2021/12/06 04:08:49;;;;;;;9.95;5.90;;;0.70;99.90;;;;;;4971998;28;20035;-85
2021/12/06 04:11:15;;;;;;;14.18;7.13;;;0.70;99.90;;;;;;4967369;28;20031;-85
2021/12/06 04:13:41;;;;;;;12.98;6.47;;;0.70;99.90;;;;;;4950564;28;20026;-85
2021/12/06 04:16:07;;;;;;;24.48;8.13;;;0.70;99.90;;;;;;4975139;28;20167;-85
2021/12/06 04:18:33;;;;;;;14.02;6.75;;;0.70;99.90;;;;;;4956018;28;20051;-85
2021/12/06 04:20:59;;;;;;;12.93;6.57;;;0.70;99.90;;;;;;4955365;28;20035;-85
2021/12/06 04:23:25;;;;;;;10.88;6.43;;;0.70;99.90;;;;;;4956703;28;20033;-85
2021/12/06 04:25:51;;;;;;;15.23;6.82;;;0.70;99.90;;;;;;4953345;28;20066;-85
2021/12/06 04:28:19;;;;;;;13.57;6.28;;;0.70;99.90;;;;;;4957222;28;20791;-85
2021/12/06 04:30:46;;;;;;;10.47;6.60;;;0.70;99.90;;;;;;4953948;28;20603;-85
2021/12/06 04:33:12;;;;;;;10.45;5.90;;;0.70;99.90;;;;;;4956425;28;20415;-85
2021/12/06 04:35:39;;;;;;;11.90;7.60;;;0.70;99.90;;;;;;4956649;28;20035;-85
2021/12/06 04:38:08;;;;;;;13.73;6.93;;;0.70;99.90;;;;;;4954196;28;20178;-85
2021/12/06 04:40:35;;;;;;;18.17;7.28;;;0.70;99.90;;;;;;4970057;28;20027;-85
2021/12/06 04:43:01;;;;;;;13.93;7.22;;;0.70;99.90;;;;;;4974402;28;20049;-85
2021/12/06 04:45:27;;;;;;;12.00;7.00;;;0.70;99.90;;;;;;4950602;28;20035;-85
2021/12/06 04:47:53;;;;;;;12.32;7.03;;;0.70;99.90;;;;;;4970643;28;20035;-85
2021/12/06 04:50:24;;;;;;;9.65;6.68;;;0.70;99.90;;;;;;4950024;28;20034;-85
2021/12/06 04:52:51;;;;;;;12.18;7.03;;;0.70;99.90;;;;;;4961363;28;20038;-85
2021/12/06 04:55:29;;;;;;;14.50;7.63;;;0.70;99.90;;;;;;4951030;28;20075;-85
2021/12/06 04:57:55;;;;;;;9.98;6.93;;;0.70;99.90;;;;;;4953948;28;20033;-83
2021/12/06 05:00:42;;;;;;;11.98;7.13;;;0.70;99.90;;;;;;4955943;28;20086;-84
2021/12/06 05:03:08;;;;;;;13.23;7.20;;;0.70;99.90;;;;;;4955749;28;20380;-84
2021/12/06 05:05:44;;;;;;;15.25;7.50;;;0.80;99.90;;;;;;4959863;28;20023;-84
2021/12/06 05:08:19;;;;;;;13.20;5.93;;;0.70;99.90;;;;;;4953235;28;20039;-84
2021/12/06 05:10:46;;;;;;;12.13;6.90;;;0.80;99.90;;;;;;4964044;28;20030;-84
2021/12/06 05:13:13;;;;;;;12.40;7.03;;;0.80;99.90;;;;;;4952461;28;20034;-84
2021/12/06 05:15:38;;;;;;;12.95;8.07;;;0.80;99.90;;;;;;4959155;28;20149;-85
2021/12/06 05:18:05;;;;;;;15.95;7.65;;;0.80;99.90;;;;;;4956828;28;20129;-85
2021/12/06 05:20:32;;;;;;;10.63;5.95;;;0.80;99.90;;;;;;4956154;28;20088;-85
2021/12/06 05:22:58;;;;;;;15.43;6.63;;;0.80;99.90;;;;;;4973522;28;20027;-85
2021/12/06 05:25:25;;;;;;;10.13;6.10;;;0.80;99.90;;;;;;4968625;28;20047;-85
2021/12/06 05:27:52;;;;;;;13.45;7.63;;;0.80;99.90;;;;;;4971677;28;20042;-85
2021/12/06 05:30:21;;;;;;;14.88;7.20;;;0.80;99.90;;;;;;4971510;28;20111;-85
2021/12/06 05:32:47;;;;;;;15.98;8.02;;;0.80;99.90;;;;;;4960571;28;20085;-85
2021/12/06 05:35:14;;;;;;;15.07;8.20;;;0.90;99.90;;;;;;4964000;28;20030;-85
2021/12/06 05:37:46;;;;;;;12.02;6.63;;;0.90;99.90;;;;;;4951214;28;20035;-85
2021/12/06 05:40:17;;;;;;;17.15;8.48;;;0.90;99.90;;;;;;4952765;28;20038;-85
2021/12/06 05:42:43;;;;;;;17.63;7.93;;;0.90;99.90;;;;;;4952742;28;20061;-85
2021/12/06 05:45:10;;;;;;;14.95;7.47;;;0.90;99.90;;;;;;4965252;28;20125;-84
2021/12/06 05:47:36;;;;;;;16.75;7.72;;;0.90;99.90;;;;;;4961711;28;20562;-85
2021/12/06 05:50:03;;;;;;;15.82;8.05;;;1.00;99.90;;;;;;4951832;28;20033;-85
2021/12/06 05:52:29;;;;;;;16.45;9.63;;;1.00;99.90;;;;;;4953851;28;20054;-85
2021/12/06 05:54:55;;;;;;;16.05;7.60;;;1.00;99.90;;;;;;4973118;28;20065;-84
2021/12/06 05:57:21;;;;;;;16.75;7.85;;;1.00;99.90;;;;;;4953600;28;20085;-84
2021/12/06 05:59:46;;;;;;;16.52;7.88;;;1.00;99.90;;;;;;4956616;28;20043;-84
2021/12/06 06:02:12;;;;;;;13.65;7.60;;;1.00;99.90;;;;;;4952055;28;20042;-85
2021/12/06 06:04:39;;;;;;;17.52;7.82;;;1.00;99.90;;;;;;4953489;28;20117;-85
2021/12/06 06:07:05;;;;;;;14.27;7.18;;;1.00;99.90;;;;;;4970473;28;20510;-85
2021/12/06 06:09:31;;;;;;;15.77;8.55;;;1.00;99.90;;;;;;4957741;28;20061;-85
2021/12/06 06:11:59;;;;;;;18.33;8.25;;;1.00;99.90;;;;;;4954368;28;20034;-85
2021/12/06 06:14:25;;;;;;;16.10;8.38;;;1.00;99.90;;;;;;4956848;28;20033;-85
2021/12/06 06:16:52;;;;;;;16.52;8.18;;;1.00;99.90;;;;;;4954608;28;20035;-85
2021/12/06 06:19:21;;;;;;;17.30;8.20;;;1.00;99.90;;;;;;4957229;28;20042;-85
2021/12/06 06:21:48;;;;;;;16.05;9.45;;;1.00;99.90;;;;;;4968789;28;20406;-85
2021/12/06 06:24:14;;;;;;;16.48;8.38;;;1.00;99.90;;;;;;4951730;28;20048;-85
2021/12/06 06:26:40;;;;;;;12.23;7.57;;;1.10;99.90;;;;;;4952051;28;20019;-85
2021/12/06 06:29:07;;;;;;;15.73;9.05;;;1.10;99.90;;;;;;4956553;28;20465;-85
2021/12/06 06:31:32;;;;;;;13.95;7.85;;;1.10;99.90;;;;;;4957534;28;20495;-85
2021/12/06 06:33:58;;;;;;;15.45;7.53;;;1.10;99.90;;;;;;4980884;28;20030;-85
2021/12/06 06:36:25;;;;;;;14.13;8.32;;;1.10;99.90;;;;;;4983175;28;20038;-84
2021/12/06 06:38:50;;;;;;;16.92;6.53;;;1.10;99.90;;;;;;4958544;28;20038;-85
2021/12/06 06:41:16;;;;;;;18.95;9.27;;;1.10;99.90;;;;;;4968205;28;20481;-84
2021/12/06 06:43:42;;;;;;;16.77;7.75;;;1.10;99.90;;;;;;4954123;28;20926;-84
2021/12/06 06:46:07;;;;;;;16.58;8.57;;;1.10;99.90;;;;;;4957379;28;20698;-85
2021/12/06 06:48:34;;;;;;;15.40;6.68;;;1.10;99.90;;;;;;4953172;28;20030;-85
2021/12/06 06:51:00;;;;;;;24.73;7.50;;;1.10;99.90;;;;;;4969076;28;20038;-85
2021/12/06 06:53:28;;;;;;;15.85;8.80;;;1.10;99.90;;;;;;4954496;28;20165;-85
2021/12/06 06:55:55;;;;;;;17.02;8.20;;;1.10;99.90;;;;;;4950966;28;20058;-85
2021/12/06 06:58:21;;;;;;;19.83;8.70;;;1.10;99.90;;;;;;4951950;28;20558;-85
2021/12/06 07:00:49;;;;;;;13.82;7.10;;;1.10;99.90;;;;;;4952684;28;20043;-85
2021/12/06 07:03:15;;;;;;;15.40;8.38;;;1.10;99.90;;;;;;4965499;28;20517;-85
2021/12/06 07:05:41;;;;;;;14.13;7.22;;;1.10;99.90;;;;;;4962810;28;20076;-85
2021/12/06 07:08:07;;;;;;;18.15;8.20;;;1.10;99.90;;;;;;4969599;28;20030;-85
2021/12/06 07:10:34;;;;;;;15.40;7.10;;;1.10;99.90;;;;;;4950475;28;20093;-85
2021/12/06 07:13:07;;;;;;;13.63;7.30;;;1.10;99.90;;;;;;4960242;28;20523;-84
2021/12/06 07:15:34;;;;;;;14.70;7.95;;;1.10;99.90;;;;;;4953430;28;20031;-85
2021/12/06 07:18:01;;;;;;;15.43;8.50;;;1.10;99.90;;;;;;4971841;28;20080;-85
2021/12/06 07:20:27;;;;;;;18.63;8.38;;;1.10;99.90;;;;;;4950208;28;20062;-85
2021/12/06 07:22:53;;;;;;;12.68;7.50;;;1.10;99.90;;;;;;4949805;28;20031;-84
2021/12/06 07:25:21;;;;;;;17.08;7.82;;;1.10;99.90;;;;;;4970726;28;20903;-85
2021/12/06 07:27:50;;;;;;;15.73;8.23;;;1.10;99.90;;;;;;4953411;28;20031;-85
2021/12/06 07:30:17;;;;;;;16.95;8.15;;;1.20;99.90;;;;;;4957093;28;20506;-85
2021/12/06 07:32:44;;;;;;;17.77;6.93;;;1.20;99.90;;;;;;4954730;28;20043;-85
2021/12/06 07:35:11;;;;;;;16.35;7.60;;;1.20;99.90;;;;;;4947297;28;20089;-85
2021/12/06 07:37:39;;;;;;;16.02;7.95;;;1.20;99.90;;;;;;4962620;28;20504;-84
2021/12/06 07:40:07;;;;;;;18.50;7.65;;;1.20;99.90;;;;;;4953049;28;20031;-84
2021/12/06 07:42:33;;;;;;;17.17;6.95;;;1.10;99.90;;;;;;4966301;28;20031;-84
2021/12/06 07:44:59;;;;;;;12.38;7.30;;;1.20;99.90;;;;;;4972307;28;20031;-84
2021/12/06 07:47:25;;;;;;;15.27;8.02;;;1.20;99.90;;;;;;4949845;28;20515;-84
2021/12/06 07:49:50;;;;;;;13.68;7.75;;;1.20;99.90;;;;;;4949521;28;20053;-84
2021/12/06 07:52:16;;;;;;;16.25;8.45;;;1.30;99.90;;;;;;4968767;28;20045;-84
2021/12/06 07:54:42;;;;;;;14.00;7.55;;;1.30;99.90;;;;;;4964154;28;20038;-84
2021/12/06 07:57:09;;;;;;;15.35;7.80;;;1.30;99.90;;;;;;4948930;28;20034;-84
2021/12/06 07:59:38;;;;;;;15.57;7.82;;;1.30;99.90;;;;;;4950648;28;20429;-84
2021/12/06 08:02:06;;;;;;;14.35;8.00;;;1.30;99.90;;;;;;4956570;28;20442;-84
2021/12/06 08:04:32;;;;;;;13.48;7.30;;;1.30;99.90;;;;;;4952219;28;20137;-84
2021/12/06 08:06:58;;;;;;;11.55;7.15;;;1.30;99.90;;;;;;4958767;28;20039;-84
2021/12/06 08:09:23;;;;;;;11.73;6.68;;;1.30;99.90;;;;;;4946412;28;20068;-85
2021/12/06 08:11:49;;;;;;;9.85;6.70;;;1.30;99.90;;;;;;4949919;28;20122;-85
2021/12/06 08:14:15;;;;;;;16.27;7.65;;;1.40;99.90;;;;;;4948539;28;20123;-85
2021/12/06 08:16:43;;;;;;;19.95;8.45;;;1.40;99.90;;;;;;4953137;28;20026;-85
2021/12/06 08:19:11;;;;;;;18.08;9.35;;;1.50;99.90;;;;;;4952282;28;20042;-85
2021/12/06 08:21:37;;;;;;;13.20;7.28;;;1.50;99.90;;;;;;4948102;28;20129;-85
2021/12/06 08:24:04;;;;;;;14.80;8.85;;;1.50;99.90;;;;;;4948213;28;20535;-85
2021/12/06 08:26:33;;;;;;;19.60;7.95;;;1.50;99.90;;;;;;4961208;28;20038;-85
2021/12/06 08:29:02;;;;;;;16.88;9.18;;;1.50;99.90;;;;;;4960726;28;20055;-85
2021/12/06 08:31:29;;;;;;;16.23;7.93;;;1.60;99.90;;;;;;4957915;28;20039;-84
2021/12/06 08:33:55;;;;;;;17.23;8.18;;;1.60;99.90;;;;;;4952096;28;20046;-85
2021/12/06 08:36:22;;;;;;;17.50;7.85;;;1.60;99.90;;;;;;4952273;28;21146;-85
2021/12/06 08:38:48;;;;;;;12.63;6.97;;;1.70;99.90;;;;;;4948859;28;20039;-85
2021/12/06 08:41:18;;;;;;;16.55;9.40;;;1.70;99.90;;;;;;4948806;28;20516;-85
2021/12/06 08:43:45;;;;;;;15.80;8.18;;;1.80;99.90;;;;;;4959887;28;20036;-85
2021/12/06 08:46:22;;;;;;;29.17;8.32;;;1.80;99.90;;;;;;4947750;28;20033;-85
2021/12/06 08:48:49;;;;;;;18.70;9.05;;;1.80;99.90;;;;;;4947957;28;20096;-86
2021/12/06 08:51:28;;;;;;;17.20;8.80;;;1.80;99.90;;;;;;4948312;28;20035;-85
2021/12/06 08:53:55;;;;;;;19.80;9.55;;;1.80;99.90;;;;;;4947279;28;20055;-85
2021/12/06 08:56:21;;;;;;;21.27;10.13;;;1.80;99.90;;;;;;4963308;28;20034;-85
2021/12/06 08:58:49;;;;;;;19.38;10.60;;;1.80;99.90;;;;;;4948755;28;20054;-85
2021/12/06 09:01:15;;;;;;;20.50;9.70;;;1.90;99.90;;;;;;4948778;28;20525;-85
2021/12/06 09:03:41;;;;;;;20.88;8.55;;;1.90;99.90;;;;;;4955539;28;20030;-85
2021/12/06 09:06:09;;;;;;;18.60;9.57;;;1.90;99.90;;;;;;4962474;28;20031;-85
2021/12/06 09:08:36;;;;;;;16.05;8.68;;;1.90;99.90;;;;;;4945926;28;20131;-85
2021/12/06 09:11:03;;;;;;;22.80;9.50;;;1.90;99.90;;;;;;4954696;28;20042;-85
2021/12/06 09:13:29;;;;;;;19.50;8.27;;;1.90;99.90;;;;;;4946380;28;20373;-85
2021/12/06 09:15:59;;;;;;;19.45;8.90;;;1.90;99.90;;;;;;4948490;28;20074;-85
2021/12/06 09:18:25;;;;;;;21.77;10.35;;;1.90;99.90;;;;;;4950551;28;20781;-85
2021/12/06 09:20:52;;;;;;;19.05;8.77;;;1.90;99.90;;;;;;4960624;28;20031;-85
2021/12/06 09:23:18;;;;;;;19.77;9.50;;;1.90;99.90;;;;;;4958511;28;20045;-85
2021/12/06 09:25:47;;;;;;;21.67;9.65;;;1.80;99.90;;;;;;4946230;28;20031;-85
2021/12/06 09:28:16;;;;;;;22.75;9.75;;;1.80;99.90;;;;;;4952997;28;20035;-85
2021/12/06 09:30:42;;;;;;;21.23;9.90;;;1.90;99.90;;;;;;4947621;28;20077;-85
2021/12/06 09:33:10;;;;;;;23.52;9.60;;;1.90;99.90;;;;;;4949464;28;20031;-85
2021/12/06 09:35:39;;;;;;;16.13;7.65;;;1.90;99.90;;;;;;4949605;28;20031;-85
2021/12/06 09:38:06;;;;;;;15.38;8.18;;;1.90;99.90;;;;;;4951355;28;20027;-85
2021/12/06 09:40:35;;;;;;;20.38;9.60;;;1.90;99.90;;;;;;4961726;28;20548;-85
2021/12/06 09:43:05;;;;;;;18.95;7.97;;;1.80;99.90;;;;;;4949246;28;20784;-84
2021/12/06 09:45:32;;;;;;;13.05;6.53;;;1.90;99.90;;;;;;4958804;28;20448;-85
2021/12/06 09:48:01;;;;;;;11.88;6.45;;;1.90;99.90;;;;;;4946235;28;20085;-85
2021/12/06 09:50:36;;;;;;;;;;;1.90;99.90;;;;;;4958345;28;20370;-84
2021/12/06 09:53:05;;;;;;;15.13;7.75;;;1.90;99.90;;;;;;4950994;28;19922;-84
2021/12/06 09:55:32;;;;;;;11.55;5.97;;;1.90;99.90;;;;;;4947916;28;20042;-84
2021/12/06 09:58:00;;;;;;;13.25;6.70;;;1.90;99.90;;;;;;4947485;28;20031;-84
2021/12/06 10:00:29;;;;;;;18.27;8.63;;;2.00;99.90;;;;;;4961114;28;20571;-84
2021/12/06 10:02:55;;;;;;;12.60;7.00;;;2.00;99.90;;;;;;4946510;28;22341;-84
2021/12/06 10:05:26;;;;;;;22.52;9.38;;;2.00;99.90;;;;;;4960109;28;20030;-83
2021/12/06 10:07:56;;;;;;;15.02;8.07;;;2.00;99.90;;;;;;4950750;28;20489;-83
2021/12/06 10:10:23;;;;;;;16.23;9.05;;;2.00;99.90;;;;;;4949327;28;20628;-84
2021/12/06 10:12:52;;;;;;;20.58;8.05;;;2.00;99.90;;;;;;4954566;28;20026;-83
2021/12/06 10:15:19;;;;;;;15.73;7.40;;;2.00;99.90;;;;;;4965875;28;20038;-83
2021/12/06 10:17:46;;;;;;;18.42;7.22;;;2.00;99.90;;;;;;4952709;28;20039;-84
2021/12/06 10:20:12;;;;;;;19.98;8.20;;;2.10;99.90;;;;;;4963978;28;20086;-84
2021/12/06 10:22:38;;;;;;;16.30;8.73;;;2.10;99.90;;;;;;4956549;28;20393;-83
2021/12/06 10:25:06;;;;;;;18.20;9.95;;;2.10;99.90;;;;;;4954566;28;20023;-83
2021/12/06 10:27:32;;;;;;;19.92;8.02;;;2.10;99.90;;;;;;4954105;28;20063;-83
2021/12/06 10:30:03;;;;;;;22.45;9.55;;;2.20;99.90;;;;;;4949949;28;20071;-84
2021/12/06 10:32:32;;;;;;;19.08;8.20;;;2.20;99.90;;;;;;4959730;28;20035;-84
2021/12/06 10:35:02;;;;;;;;;;;2.20;99.90;;;;;;4954180;28;20090;-83
2021/12/06 10:37:36;;;;;;;11.93;6.10;;;2.10;99.90;;;;;;4957426;28;20470;-84
2021/12/06 10:40:05;;;;;;;14.23;6.75;;;2.10;99.90;;;;;;4951148;28;20115;-84
2021/12/06 10:42:36;;;;;;;13.45;8.10;;;2.10;99.90;;;;;;4959167;28;20035;-83
2021/12/06 10:45:19;;;;;;;12.43;6.45;;;2.10;99.90;;;;;;4947471;28;20040;-83
2021/12/06 10:48:07;;;;;;;17.42;7.55;;;2.00;99.90;;;;;;4949618;28;20110;-83
2021/12/06 10:50:33;;;;;;;15.90;7.65;;;2.00;99.90;;;;;;4963479;28;20038;-83
2021/12/06 10:53:01;;;;;;;16.67;8.57;;;2.10;99.90;;;;;;4952077;28;20035;-83
2021/12/06 10:55:30;;;;;;;18.55;7.50;;;2.10;99.90;;;;;;4949236;28;20455;-84
2021/12/06 10:58:00;;;;;;;19.17;8.27;;;2.10;99.90;;;;;;4949780;28;20039;-84
2021/12/06 11:00:39;;;;;;;18.17;8.15;;;2.10;99.90;;;;;;4944744;28;20046;-84
2021/12/06 11:03:16;;;;;;;22.02;8.52;;;2.10;99.90;;;;;;4949588;28;20089;-84
2021/12/06 11:05:44;;;;;;;17.85;6.82;;;2.10;99.90;;;;;;4961662;28;20035;-84
2021/12/06 11:08:15;;;;;;;19.95;9.55;;;2.10;99.90;;;;;;4948472;28;20106;-84
2021/12/06 11:10:59;;;;;;;16.80;7.80;;;2.10;99.90;;;;;;4948913;28;20099;-84
2021/12/06 11:13:48;;;;;;;18.42;8.15;;;2.20;99.90;;;;;;4947599;28;20035;-84
2021/12/06 11:16:17;;;;;;;17.13;6.25;;;2.20;99.90;;;;;;4948629;28;20035;-84
2021/12/06 11:18:51;;;;;;;;;;;2.20;99.90;;;;;;4950184;28;20113;-84
2021/12/06 11:21:39;;;;;;;19.75;8.18;;;2.40;99.90;;;;;;4950704;28;19916;-84
2021/12/06 11:24:31;;;;;;;17.90;7.55;;;2.40;99.90;;;;;;4952999;28;20027;-84
2021/12/06 11:27:00;;;;;;;15.73;7.70;;;2.40;99.90;;;;;;4950367;28;20087;-84
2021/12/06 11:29:42;;;;;;;18.42;7.30;;;2.40;99.90;;;;;;4949507;28;20038;-84
2021/12/06 11:32:15;;;;;;;10.52;5.80;;;2.40;99.90;;;;;;4957992;28;20100;-84
2021/12/06 11:34:59;;;;;;;14.25;6.45;;;2.40;99.90;;;;;;4951111;28;20039;-84
2021/12/06 11:37:56;;;;;;;21.13;7.78;;;2.50;99.90;;;;;;4952539;28;20443;-84
2021/12/06 11:40:26;;;;;;;12.15;5.95;;;2.50;99.90;;;;;;4945729;28;20202;-84
2021/12/06 11:43:10;;;;;;;16.00;7.22;;;2.50;99.90;;;;;;4948043;28;20024;-84
2021/12/06 11:45:46;;;;;;;14.30;6.93;;;2.50;99.90;;;;;;4961482;28;20473;-84
2021/12/06 11:48:39;;;;;;;15.10;7.03;;;2.50;99.90;;;;;;4952413;28;20046;-84
2021/12/06 11:51:12;;;;;;;21.10;6.90;;;2.40;99.90;;;;;;4946160;28;20074;-85
2021/12/06 11:53:39;;;;;;;18.92;7.82;;;2.40;99.90;;;;;;4950005;28;20064;-84
2021/12/06 11:56:10;;;;;;;17.80;6.88;;;2.40;99.90;;;;;;4968565;28;20034;-84
2021/12/06 11:58:41;;;;;;;15.90;7.13;;;2.50;99.90;;;;;;4966242;28;20035;-83
2021/12/06 12:01:09;;;;;;;18.60;7.68;;;2.50;99.90;;;;;;4968261;28;20040;-83
2021/12/06 12:03:37;;;;;;;15.65;7.60;;;2.40;99.90;;;;;;4967758;28;20440;-83
2021/12/06 12:06:19;;;;;;;17.35;7.22;;;2.50;99.90;;;;;;4979296;28;20026;-83
2021/12/06 12:08:45;;;;;;;15.00;7.20;;;2.50;99.90;;;;;;4974556;28;20085;-83
2021/12/06 12:11:10;;;;;;;17.50;7.22;;;2.50;99.90;;;;;;4953236;28;20480;-84
2021/12/06 12:13:37;;;;;;;21.60;8.18;;;2.60;99.90;;;;;;4948932;28;20105;-84
2021/12/06 12:16:08;;;;;;;17.98;7.53;;;2.60;99.90;;;;;;4956136;28;20492;-84
2021/12/06 12:18:37;;;;;;;20.05;8.40;;;2.60;99.90;;;;;;4968814;28;20031;-84
2021/12/06 12:21:06;;;;;;;19.00;9.25;;;2.60;99.90;;;;;;4971694;28;20037;-84
2021/12/06 12:23:32;;;;;;;15.60;7.47;;;2.60;99.90;;;;;;4956954;28;20396;-83
2021/12/06 12:26:07;;;;;;;18.75;7.35;;;2.60;99.90;;;;;;4959491;28;20050;-83
2021/12/06 12:28:39;;;;;;;17.15;7.63;;;2.60;99.90;;;;;;4971642;28;20037;-84
2021/12/06 12:31:09;;;;;;;14.07;7.20;;;2.60;99.90;;;;;;4973367;28;20101;-84
2021/12/06 12:33:36;;;;;;;17.15;7.68;;;2.70;99.90;;;;;;4986523;28;20643;-84
2021/12/06 12:36:06;;;;;;;14.57;6.35;;;2.70;99.90;;;;;;4990319;28;20106;-84
2021/12/06 12:38:34;;;;;;;13.60;7.50;;;2.70;99.90;;;;;;4974283;28;20066;-85
2021/12/06 12:41:06;;;;;;;12.55;5.60;;;2.80;99.90;;;;;;4938420;28;20063;-84
2021/12/06 12:43:36;;;;;;;10.98;5.75;;;2.70;99.90;;;;;;4954680;28;20400;-84
2021/12/06 12:46:13;;;;;;;9.27;4.93;;;2.70;99.90;;;;;;4967661;28;20027;-84
2021/12/06 12:48:50;;;;;;;11.18;5.45;;;2.70;99.90;;;;;;4960745;28;20384;-83
2021/12/06 12:51:20;;;;;;;10.05;6.18;;;2.70;99.90;;;;;;4974059;28;20594;-84
2021/12/06 12:54:03;;;;;;;11.73;5.55;;;2.70;99.90;;;;;;4956024;28;20044;-84
2021/12/06 12:56:32;;;;;;;13.68;7.03;;;2.70;99.90;;;;;;4957266;28;20133;-84
2021/12/06 12:58:59;;;;;;;16.15;6.35;;;2.80;99.90;;;;;;4953466;28;20057;-84
2021/12/06 13:01:27;;;;;;;10.45;4.63;;;2.80;99.90;;;;;;4954256;28;20043;-84
2021/12/06 13:03:55;;;;;;;11.77;6.05;;;2.80;99.90;;;;;;4957571;28;20023;-84
2021/12/06 13:06:22;;;;;;;12.23;5.97;;;2.90;99.90;;;;;;4962294;28;20037;-83
2021/12/06 13:08:52;;;;;;;11.57;5.78;;;2.90;99.90;;;;;;4967692;28;20022;-83
2021/12/06 13:11:18;;;;;;;12.23;5.63;;;2.90;99.90;;;;;;4955765;28;20523;-83
2021/12/06 13:13:48;;;;;;;11.75;6.15;;;2.90;99.90;;;;;;4972758;28;20023;-83